Flight Track Log - Related Links

Times and Time Zones

All times are in EDT time to prevent confusion due to time zone crossing. See the SKW4664 flight status page for this flight to view local times or setup timezone preferences in your user account.

Time Position Orientation Groundspeed Altitude Reporting Facility
EDT Latitude Longitude Course Direction KTS MPH feet Rate Location/Type
Tue 10:21:38 AM 44.8975 -93.2528 235° Southwest 164 189 2,600  Level FAA TRACON SMA TRACON (SMA)
Tue 10:21:58 AM 44.8928 -93.2764 254° West 193 222 3,400 2,700 Climbing FAA TRACON SMA TRACON (SMA)
Tue 10:22:18 AM 44.8864 -93.3083 254° West 219 252 4,400 2,700 Climbing FAA TRACON SMA TRACON (SMA)
Tue 10:22:38 AM 44.8806 -93.3369 254° West 240 276 5,200 2,550 Climbing FAA TRACON SMA TRACON (SMA)
Tue 10:22:58 AM 44.8733 -93.3667 251° West 258 297 6,100 3,209 Climbing FAA TRACON SMA TRACON (SMA)
Tue 10:23:21 AM 44.8550 -93.3989 231° Southwest 275 316 7,500 3,714 Climbing FAA TRACON SMA TRACON (SMA)
Tue 10:23:40 AM 44.8397 -93.4244 230° Southwest 276 318 8,700 3,568 Climbing FAA TRACON SMA TRACON (SMA)
Tue 10:23:58 AM 44.8244 -93.4497 230° Southwest 277 319 9,700 2,842 Climbing FAA TRACON SMA TRACON (SMA)
Tue 10:24:00 AM 44.6887 -93.6226 235° Southwest  Level FlightAware Approximate
Tue 10:24:18 AM 44.8097 -93.4756 231° Southwest 277 319 10,500  Level FAA TRACON SMA TRACON (SMA)
Tue 10:24:38 AM 44.7892 -93.5086 229° Southwest 289 333 11,400 2,850 Climbing FAA TRACON SMA TRACON (SMA)
Tue 10:24:58 AM 44.7733 -93.5353 230° Southwest 290 334 12,400 2,615 Climbing FAA TRACON SMA TRACON (SMA)
Tue 10:25:00 AM 44.6371 -93.7259 235° Southwest  Level FlightAware Approximate
Tue 10:25:17 AM 44.7569 -93.5619 229° Southwest 294 338 13,100  Level FAA TRACON SMA TRACON (SMA)
Tue 10:25:38 AM 44.7361 -93.5961 229° Southwest 299 344 14,200 2,780 Climbing FAA TRACON SMA TRACON (SMA)
Tue 10:25:58 AM 44.7192 -93.6239 229° Southwest 303 349 15,000 2,634 Climbing FAA TRACON SMA TRACON (SMA)
Tue 10:26:00 AM 44.5855 -93.8290 235° Southwest  Level FlightAware Approximate
Tue 10:26:19 AM 44.6972 -93.6589 229° Southwest 307 353 16,000  Level FAA TRACON SMA TRACON (SMA)
Tue 10:26:39 AM 44.6806 -93.6869 230° Southwest 307 353 16,800 2,400 Climbing FAA TRACON SMA TRACON (SMA)
Tue 10:26:59 AM 44.6636 -93.7156 230° Southwest 308 354 17,600 1,800 Climbing FAA TRACON SMA TRACON (SMA)
Tue 10:27:19 AM 44.6417 -93.7511 229° Southwest 311 358 18,000 600 Climbing FAA TRACON SMA TRACON (SMA)
Tue 10:27:39 AM 44.6239 -93.7797 229° Southwest 317 365 18,000  Level FAA TRACON SMA TRACON (SMA)
Tue 10:27:58 AM 44.6064 -93.8081 229° Southwest 315 362 18,000  Level FAA TRACON SMA TRACON (SMA)
Tue 10:28:18 AM 44.5856 -93.8442 231° Southwest 310 357 18,000  Level FAA TRACON SMA TRACON (SMA)
Tue 10:28:38 AM 44.5731 -93.8753 241° Southwest 301 346 18,000  Level FAA TRACON SMA TRACON (SMA)
Tue 10:28:59 AM 44.5625 -93.9081 246° West 299 344 18,000  Level FAA TRACON SMA TRACON (SMA)
Tue 10:29:19 AM 44.5497 -93.9483 246° West 295 339 18,000  Level FAA TRACON SMA TRACON (SMA)
Tue 10:29:39 AM 44.5394 -93.9803 246° West 293 337 18,000  Level FAA TRACON SMA TRACON (SMA)
Tue 10:29:59 AM 44.5283 -94.0114 243° Southwest 292 336 18,000  Level FAA TRACON SMA TRACON (SMA)
Tue 10:30:19 AM 44.5156 -94.0525 246° West 296 341 18,000  Level FAA TRACON SMA TRACON (SMA)
Tue 10:30:39 AM 44.5058 -94.0853 247° West 297 342 18,000  Level FAA TRACON SMA TRACON (SMA)
Tue 10:30:59 AM 44.4953 -94.1178 246° West 297 342 18,000  Level FAA TRACON SMA TRACON (SMA)
Tue 10:31:19 AM 44.4822 -94.1592 246° West 300 345 18,000  Level FAA TRACON SMA TRACON (SMA)
Tue 10:31:39 AM 44.4722 -94.1922 247° West 301 346 18,000  Level FAA TRACON SMA TRACON (SMA)
Tue 10:31:59 AM 44.4611 -94.2244 244° Southwest 302 348 18,000  Level FAA TRACON SMA TRACON (SMA)
Tue 10:32:19 AM 44.4478 -94.2661 246° West 303 349 18,000  Level FAA TRACON SMA TRACON (SMA)
Tue 10:32:38 AM 44.4381 -94.2997 248° West 302 348 18,000  Level FAA TRACON SMA TRACON (SMA)
Tue 10:32:58 AM 44.4261 -94.3317 242° Southwest 302 348 18,000  Level FAA TRACON SMA TRACON (SMA)
Tue 10:33:19 AM 44.4133 -94.3733 247° West 302 348 18,000  Level FAA TRACON SMA TRACON (SMA)
Tue 10:33:39 AM 44.4019 -94.4056 244° Southwest 302 348 18,000  Level FAA TRACON SMA TRACON (SMA)
Tue 10:33:59 AM 44.3928 -94.4394 249° West 302 348 18,000  Level FAA TRACON SMA TRACON (SMA)
Tue 10:34:48 AM 44.3656 -94.5075 241° Southwest 297 342 18,000  Level Minneapolis Center
Tue 10:35:50 AM 44.3294 -94.6125 244° Southwest 300 345 18,000  Level Minneapolis Center
Tue 10:36:52 AM 44.2892 -94.7286 244° Southwest 301 346 18,000  Level Minneapolis Center
Tue 10:37:54 AM 44.2544 -94.8344 245° Southwest 301 346 18,000  Level Minneapolis Center
Tue 10:38:55 AM 44.2189 -94.9397 245° Southwest 301 346 18,000  Level Minneapolis Center
Tue 10:39:57 AM 44.1756 -95.0658 244° Southwest 301 346 18,000  Level Minneapolis Center
Tue 10:40:59 AM 44.1383 -95.1731 244° Southwest 306 352 18,000  Level Minneapolis Center
Tue 10:42:01 AM 44.1022 -95.2772 244° Southwest 301 346 18,000  Level Minneapolis Center
Tue 10:43:03 AM 44.0656 -95.3817 244° Southwest 301 346 18,000  Level Minneapolis Center
Tue 10:44:05 AM 44.0289 -95.4869 244° Southwest 301 346 18,000  Level Minneapolis Center
Tue 10:45:07 AM 43.9928 -95.5911 244° Southwest 300 345 18,000  Level Minneapolis Center
Tue 10:46:08 AM 43.9561 -95.6956 244° Southwest 301 346 18,000  Level Minneapolis Center
Tue 10:47:10 AM 43.9192 -95.8003 244° Southwest 301 346 18,000 -194 Level Minneapolis Center
Tue 10:48:12 AM 43.8794 -95.9022 242° Southwest 300 345 17,600 -1,544 Descending Minneapolis Center
Tue 10:49:26 AM 43.8139 -96.0111 230° Southwest 303 349 14,500 -2,206 Descending Minneapolis Center
Tue 10:50:28 AM 43.7525 -96.1133 230° Southwest 288 331 12,600 -1,645 Descending Minneapolis Center
Tue 10:51:30 AM 43.7078 -96.1978 234° Southwest 280 322 11,100 -1,452 Descending Minneapolis Center
Tue 10:52:32 AM 43.6636 -96.2875 236° Southwest 278 320 9,600 -1,452 Descending Minneapolis Center
Tue 10:53:34 AM 43.6203 -96.3772 236° Southwest 279 321 8,100 -1,452 Descending Minneapolis Center
Tue 10:54:36 AM 43.5778 -96.4681 237° Southwest 280 322 6,600 -1,597 Descending Minneapolis Center
Tue 10:55:38 AM 43.5358 -96.5750 242° Southwest 273 314 4,800 -1,742 Descending Minneapolis Center

Login

Don't have an account? Register now (free) for customized features, flight alerts, and more!